Time;durP1;ratioP1;P1;durP2;ratioP2;P2;SDS_P1;SDS_P2;PMS_P1;PMS_P2;Temp;Humidity;BMP_temperature;BMP_pressure;BME280_temperature;BME280_humidity;BME280_pressure;Samples;Min_cycle;Max_cycle;Signal;HPM_P1;HPM_P2
2022/09/30 00:01:17;;;;;;;8.43;3.08;;;;;;;;;;5034605;28;20091;-65
2022/09/30 00:03:43;;;;;;;8.88;3.67;;;;;;;;;;5033836;28;20033;-65
2022/09/30 00:06:10;;;;;;;5.88;3.03;;;;;;;;;;5034464;28;20060;-65
2022/09/30 00:08:39;;;;;;;4.65;2.78;;;;;;;;;;5033908;28;20133;-65
2022/09/30 00:11:06;;;;;;;7.22;2.95;;;;;;;;;;5032993;28;20061;-65
2022/09/30 00:13:34;;;;;;;5.70;2.60;;;;;;;;;;5034427;28;20030;-65
2022/09/30 00:16:00;;;;;;;5.50;2.80;;;;;;;;;;5032618;28;20732;-65
2022/09/30 00:18:27;;;;;;;8.32;2.70;;;;;;;;;;5034289;28;20025;-65
2022/09/30 00:20:53;;;;;;;7.28;3.35;;;;;;;;;;5033733;28;20438;-65
2022/09/30 00:23:20;;;;;;;6.00;2.85;;;;;;;;;;5033916;28;20037;-65
2022/09/30 00:25:47;;;;;;;9.05;3.35;;;;;;;;;;5033656;28;20040;-65
2022/09/30 00:28:13;;;;;;;8.38;3.90;;;;;;;;;;5034051;28;20044;-65
2022/09/30 00:30:40;;;;;;;11.88;3.88;;;;;;;;;;5033942;28;20029;-65
2022/09/30 00:33:06;;;;;;;8.40;4.63;;;;;;;;;;5032463;28;20022;-65
2022/09/30 00:35:32;;;;;;;9.65;4.15;;;;;;;;;;5034049;28;20037;-65
2022/09/30 00:37:59;;;;;;;4.53;3.38;;;;;;;;;;5033269;28;20069;-65
2022/09/30 00:40:25;;;;;;;5.63;3.20;;;;;;;;;;5033378;28;20025;-65
2022/09/30 00:42:51;;;;;;;9.73;3.22;;;;;;;;;;5033669;28;20036;-65
2022/09/30 00:45:18;;;;;;;6.25;3.13;;;;;;;;;;5033764;28;20122;-65
2022/09/30 00:47:49;;;;;;;5.53;3.63;;;;;;;;;;5033485;28;20488;-65
2022/09/30 00:50:22;;;;;;;12.63;3.42;;;;;;;;;;5017718;28;20481;-65
2022/09/30 00:52:51;;;;;;;6.45;2.95;;;;;;;;;;5033804;28;20043;-65
2022/09/30 00:55:24;;;;;;;6.10;3.00;;;;;;;;;;5033607;28;20083;-65
2022/09/30 00:57:50;;;;;;;8.07;3.47;;;;;;;;;;5032971;28;20021;-65
2022/09/30 01:00:16;;;;;;;6.80;3.38;;;;;;;;;;5033357;28;20072;-65
2022/09/30 01:02:42;;;;;;;6.13;3.10;;;;;;;;;;5033469;28;20132;-65
2022/09/30 01:05:08;;;;;;;5.75;3.25;;;;;;;;;;5032819;28;20029;-65
2022/09/30 01:07:35;;;;;;;6.80;3.65;;;;;;;;;;5033136;28;20025;-65
2022/09/30 01:10:02;;;;;;;6.93;3.30;;;;;;;;;;5032838;28;20047;-65
2022/09/30 01:12:28;;;;;;;5.63;2.95;;;;;;;;;;5032815;28;20021;-65
2022/09/30 01:14:56;;;;;;;10.70;2.85;;;;;;;;;;5033079;28;20066;-65
2022/09/30 01:17:28;;;;;;;5.10;2.72;;;;;;;;;;5032691;28;20033;-65
2022/09/30 01:20:13;;;;;;;6.90;3.15;;;;;;;;;;5032569;28;20033;-65
2022/09/30 01:22:45;;;;;;;5.75;3.22;;;;;;;;;;5032478;28;20116;-65
2022/09/30 01:25:14;;;;;;;7.37;2.87;;;;;;;;;;5032930;28;20075;-65
2022/09/30 01:27:49;;;;;;;8.30;3.05;;;;;;;;;;5032904;28;20394;-65
2022/09/30 01:30:20;;;;;;;10.00;2.80;;;;;;;;;;5032866;28;20021;-65
2022/09/30 01:32:49;;;;;;;6.18;2.90;;;;;;;;;;5032688;28;20061;-65
2022/09/30 01:35:35;;;;;;;6.95;2.50;;;;;;;;;;5032341;28;20017;-65
2022/09/30 01:38:12;;;;;;;6.50;2.90;;;;;;;;;;5032210;28;20441;-65
2022/09/30 01:40:38;;;;;;;6.88;3.03;;;;;;;;;;5032768;28;20470;-65
2022/09/30 01:43:13;;;;;;;4.30;2.47;;;;;;;;;;5032377;28;20493;-65
2022/09/30 01:45:42;;;;;;;6.40;2.70;;;;;;;;;;5032630;28;20022;-65
2022/09/30 01:48:41;;;;;;;4.50;2.20;;;;;;;;;;5032366;28;20033;-65
2022/09/30 01:51:11;;;;;;;7.22;2.22;;;;;;;;;;5029932;28;20057;-65
2022/09/30 01:53:40;;;;;;;5.45;2.42;;;;;;;;;;5030377;28;20049;-65
2022/09/30 01:56:18;;;;;;;6.50;3.50;;;;;;;;;;5029524;28;20429;-65
2022/09/30 01:58:47;;;;;;;7.20;2.40;;;;;;;;;;5030369;28;20064;-65
2022/09/30 02:01:18;;;;;;;5.40;2.15;;;;;;;;;;5030034;28;20052;-65
2022/09/30 02:03:47;;;;;;;6.55;2.65;;;;;;;;;;5029951;28;20496;-65
2022/09/30 02:06:19;;;;;;;5.30;2.45;;;;;;;;;;5029340;28;20049;-65
2022/09/30 02:09:04;;;;;;;5.85;2.22;;;;;;;;;;5030041;28;20041;-65
2022/09/30 02:11:34;;;;;;;7.13;2.70;;;;;;;;;;5029923;28;20489;-65
2022/09/30 02:14:03;;;;;;;8.35;2.90;;;;;;;;;;5029085;28;20041;-65
2022/09/30 02:16:45;;;;;;;4.78;2.13;;;;;;;;;;5028613;28;20421;-65
2022/09/30 02:19:19;;;;;;;4.93;2.22;;;;;;;;;;5029556;28;20041;-65
2022/09/30 02:21:48;;;;;;;3.10;2.08;;;;;;;;;;5030067;28;20044;-65
2022/09/30 02:24:16;;;;;;;3.05;2.15;;;;;;;;;;5029287;28;20094;-65
2022/09/30 02:26:43;;;;;;;3.47;1.95;;;;;;;;;;5031048;28;20033;-65
2022/09/30 02:29:16;;;;;;;3.33;2.30;;;;;;;;;;5031787;28;20113;-65
2022/09/30 02:31:44;;;;;;;4.65;2.38;;;;;;;;;;5031759;28;20065;-65
2022/09/30 02:34:24;;;;;;;2.60;2.40;;;;;;;;;;5031050;28;20071;-65
2022/09/30 02:37:03;;;;;;;4.00;2.17;;;;;;;;;;5019084;28;20351;-65
2022/09/30 02:39:36;;;;;;;7.35;3.17;;;;;;;;;;5031991;28;20037;-65
2022/09/30 02:42:08;;;;;;;6.45;1.98;;;;;;;;;;5031880;28;20034;-65
2022/09/30 02:44:35;;;;;;;5.40;1.90;;;;;;;;;;5031064;28;20060;-65
2022/09/30 02:47:07;;;;;;;6.75;2.30;;;;;;;;;;5031580;28;20033;-65
2022/09/30 02:49:46;;;;;;;4.53;2.20;;;;;;;;;;5031932;28;20057;-65
2022/09/30 02:52:17;;;;;;;8.75;2.50;;;;;;;;;;5031607;28;20588;-65
2022/09/30 02:54:51;;;;;;;4.00;2.63;;;;;;;;;;5031844;28;20048;-65
2022/09/30 02:57:26;;;;;;;11.18;3.00;;;;;;;;;;5030336;28;20393;-65
2022/09/30 02:59:52;;;;;;;4.85;2.20;;;;;;;;;;5031772;28;20444;-65
2022/09/30 03:02:19;;;;;;;6.82;2.30;;;;;;;;;;5030103;28;20022;-65
2022/09/30 03:04:46;;;;;;;4.80;2.78;;;;;;;;;;5031948;28;20038;-65
2022/09/30 03:07:12;;;;;;;5.38;2.05;;;;;;;;;;5031537;28;20033;-65
2022/09/30 03:09:39;;;;;;;3.85;2.28;;;;;;;;;;5031127;28;20073;-65
2022/09/30 03:12:11;;;;;;;4.80;1.90;;;;;;;;;;5031713;28;20048;-65
2022/09/30 03:14:43;;;;;;;4.95;2.30;;;;;;;;;;5015836;28;20018;-65
2022/09/30 03:17:16;;;;;;;12.13;2.60;;;;;;;;;;5031070;28;20075;-65
2022/09/30 03:19:42;;;;;;;;;;;;;;;;;;5031589;28;20034;-65
2022/09/30 03:22:09;;;;;;;6.93;2.55;;;;;;;;;;5031670;28;20004;-65
2022/09/30 03:24:35;;;;;;;4.65;2.45;;;;;;;;;;5031197;28;20440;-65
2022/09/30 03:27:05;;;;;;;6.70;2.35;;;;;;;;;;5031478;28;20401;-65
2022/09/30 03:30:06;;;;;;;2.50;2.00;;;;;;;;;;5030927;28;20083;-65
2022/09/30 03:32:51;;;;;;;4.38;2.13;;;;;;;;;;5028868;28;20044;-65
2022/09/30 03:35:29;;;;;;;4.07;2.65;;;;;;;;;;5029164;28;20129;-65
2022/09/30 03:37:59;;;;;;;4.93;2.30;;;;;;;;;;5029491;28;20025;-65
2022/09/30 03:40:29;;;;;;;4.50;2.53;;;;;;;;;;5028538;28;20425;-65
2022/09/30 03:42:59;;;;;;;5.80;2.53;;;;;;;;;;5029269;28;20060;-65
2022/09/30 03:45:48;;;;;;;5.45;2.25;;;;;;;;;;5028957;28;20116;-65
2022/09/30 03:48:15;;;;;;;7.13;2.00;;;;;;;;;;5022266;28;20052;-65
2022/09/30 03:50:42;;;;;;;5.95;2.63;;;;;;;;;;5016371;28;20021;-65
2022/09/30 03:53:11;;;;;;;4.40;2.92;;;;;;;;;;5032529;28;20513;-65
2022/09/30 03:55:46;;;;;;;9.35;2.83;;;;;;;;;;5032420;28;20400;-65
2022/09/30 03:58:13;;;;;;;4.80;2.53;;;;;;;;;;5032057;28;20113;-65
2022/09/30 04:00:43;;;;;;;5.05;2.50;;;;;;;;;;5029361;28;20045;-65
2022/09/30 04:03:09;;;;;;;9.82;2.83;;;;;;;;;;5030019;28;20423;-65
2022/09/30 04:05:35;;;;;;;3.45;2.65;;;;;;;;;;5028929;28;20033;-65
2022/09/30 04:08:01;;;;;;;7.93;2.67;;;;;;;;;;5027860;28;20500;-65
2022/09/30 04:10:27;;;;;;;4.50;2.67;;;;;;;;;;5032033;28;20120;-65
2022/09/30 04:12:53;;;;;;;6.38;3.03;;;;;;;;;;5031619;28;20481;-65
2022/09/30 04:15:20;;;;;;;10.40;2.70;;;;;;;;;;5034070;28;20013;-65
2022/09/30 04:17:46;;;;;;;6.82;3.42;;;;;;;;;;5034416;28;20468;-65
2022/09/30 04:20:12;;;;;;;7.53;2.95;;;;;;;;;;5033127;28;20025;-65
2022/09/30 04:22:38;;;;;;;5.75;2.75;;;;;;;;;;5032620;28;20042;-65
2022/09/30 04:25:04;;;;;;;8.00;3.10;;;;;;;;;;5034080;28;20104;-65
2022/09/30 04:27:30;;;;;;;6.43;3.05;;;;;;;;;;5034005;28;20516;-65
2022/09/30 04:29:56;;;;;;;5.72;3.25;;;;;;;;;;5033715;28;20025;-65
2022/09/30 04:32:24;;;;;;;5.65;2.80;;;;;;;;;;5033913;28;20375;-65
2022/09/30 04:34:52;;;;;;;5.28;2.92;;;;;;;;;;5033910;28;20021;-65
2022/09/30 04:37:18;;;;;;;3.50;2.80;;;;;;;;;;5030962;28;20029;-65
2022/09/30 04:39:44;;;;;;;6.82;3.13;;;;;;;;;;5032282;28;20030;-65
2022/09/30 04:42:10;;;;;;;4.22;2.90;;;;;;;;;;5033962;28;20033;-65
2022/09/30 04:44:36;;;;;;;5.57;2.75;;;;;;;;;;5033104;28;20067;-65
2022/09/30 04:47:03;;;;;;;5.45;2.78;;;;;;;;;;5033679;28;20029;-65
2022/09/30 04:49:29;;;;;;;7.47;2.75;;;;;;;;;;5033647;28;20489;-65
2022/09/30 04:51:55;;;;;;;5.47;2.67;;;;;;;;;;5031281;28;20031;-65
2022/09/30 04:54:22;;;;;;;5.70;2.63;;;;;;;;;;5033312;28;20034;-65
2022/09/30 04:56:48;;;;;;;5.43;2.90;;;;;;;;;;5030573;28;20482;-65
2022/09/30 04:59:14;;;;;;;5.22;2.60;;;;;;;;;;5033784;28;20025;-65
2022/09/30 05:01:42;;;;;;;6.05;2.95;;;;;;;;;;5031703;28;20412;-65
2022/09/30 05:04:09;;;;;;;8.05;3.03;;;;;;;;;;5033666;28;20031;-65
2022/09/30 05:06:35;;;;;;;9.02;3.15;;;;;;;;;;5033100;28;20048;-65
2022/09/30 05:09:01;;;;;;;7.75;2.78;;;;;;;;;;5030740;28;20045;-65
2022/09/30 05:11:28;;;;;;;4.85;2.25;;;;;;;;;;5033058;28;20546;-65
2022/09/30 05:13:54;;;;;;;4.22;2.80;;;;;;;;;;5029164;28;20033;-65
2022/09/30 05:16:20;;;;;;;8.48;3.33;;;;;;;;;;5031437;28;20124;-65
2022/09/30 05:18:48;;;;;;;5.13;2.78;;;;;;;;;;5032626;28;20029;-65
2022/09/30 05:21:16;;;;;;;5.97;2.40;;;;;;;;;;5030691;28;20040;-64
2022/09/30 05:23:42;;;;;;;4.72;2.85;;;;;;;;;;5032253;28;20052;-65
2022/09/30 05:26:08;;;;;;;7.03;2.85;;;;;;;;;;5032727;28;20065;-65
2022/09/30 05:28:34;;;;;;;3.35;2.67;;;;;;;;;;5032367;28;20436;-65
2022/09/30 05:31:02;;;;;;;6.82;3.03;;;;;;;;;;5031797;28;20028;-65
2022/09/30 05:33:28;;;;;;;5.82;3.42;;;;;;;;;;5031362;28;20037;-65
2022/09/30 05:35:55;;;;;;;6.38;2.55;;;;;;;;;;5032743;28;20029;-65
2022/09/30 05:38:21;;;;;;;5.78;2.72;;;;;;;;;;5029153;28;20501;-65
2022/09/30 05:40:47;;;;;;;6.55;2.85;;;;;;;;;;5030497;28;20041;-64
2022/09/30 05:43:13;;;;;;;4.80;2.58;;;;;;;;;;5031606;28;20048;-64
2022/09/30 05:45:39;;;;;;;6.93;3.00;;;;;;;;;;5026962;28;20108;-64
2022/09/30 05:48:06;;;;;;;7.88;2.70;;;;;;;;;;5032581;28;20182;-64
2022/09/30 05:50:32;;;;;;;5.78;3.30;;;;;;;;;;5030298;28;20041;-63
2022/09/30 05:53:00;;;;;;;8.00;3.55;;;;;;;;;;5030388;28;20391;-63
2022/09/30 05:55:26;;;;;;;3.75;3.13;;;;;;;;;;5031384;28;20021;-63
2022/09/30 05:57:52;;;;;;;7.60;3.38;;;;;;;;;;5032477;28;20480;-63
2022/09/30 06:00:19;;;;;;;4.50;2.88;;;;;;;;;;5029989;28;20485;-63
2022/09/30 06:02:45;;;;;;;5.00;3.35;;;;;;;;;;5034152;28;20424;-63
2022/09/30 06:05:12;;;;;;;5.30;3.35;;;;;;;;;;5036034;28;20033;-63
2022/09/30 06:07:38;;;;;;;7.80;3.58;;;;;;;;;;5030325;28;20036;-64
2022/09/30 06:10:06;;;;;;;7.90;3.28;;;;;;;;;;5031927;28;20033;-64
2022/09/30 06:12:34;;;;;;;5.85;3.28;;;;;;;;;;5030140;28;20025;-64
2022/09/30 06:15:00;;;;;;;12.95;3.95;;;;;;;;;;5030930;28;20386;-64
2022/09/30 06:17:26;;;;;;;8.77;3.55;;;;;;;;;;5031553;28;20017;-64
2022/09/30 06:19:52;;;;;;;7.80;3.30;;;;;;;;;;5027816;28;20427;-63
2022/09/30 06:22:18;;;;;;;5.25;3.58;;;;;;;;;;5028145;28;20036;-64
2022/09/30 06:24:45;;;;;;;6.38;3.40;;;;;;;;;;5027977;28;20389;-64
2022/09/30 06:27:11;;;;;;;4.80;3.47;;;;;;;;;;5029563;28;20037;-63
2022/09/30 06:29:37;;;;;;;6.78;3.40;;;;;;;;;;5031742;28;20029;-63
2022/09/30 06:32:05;;;;;;;7.13;3.53;;;;;;;;;;5029171;28;20033;-63
2022/09/30 06:34:31;;;;;;;15.25;7.55;;;;;;;;;;5027578;28;20053;-64
2022/09/30 06:36:57;;;;;;;12.77;4.88;;;;;;;;;;5027004;28;20072;-64
2022/09/30 06:39:25;;;;;;;8.82;4.00;;;;;;;;;;5027833;28;20030;-63
2022/09/30 06:41:51;;;;;;;8.27;4.10;;;;;;;;;;5026904;28;20037;-63
2022/09/30 06:44:24;;;;;;;7.03;4.00;;;;;;;;;;5015909;28;20033;-63
2022/09/30 06:46:50;;;;;;;5.72;4.00;;;;;;;;;;5018413;28;20056;-64
2022/09/30 06:49:16;;;;;;;5.55;3.70;;;;;;;;;;5024927;28;20109;-63
2022/09/30 06:51:42;;;;;;;6.47;4.18;;;;;;;;;;5025353;28;20033;-63
2022/09/30 06:54:08;;;;;;;18.30;8.25;;;;;;;;;;5026282;28;20030;-63
2022/09/30 06:56:35;;;;;;;29.98;14.88;;;;;;;;;;5022204;28;20413;-64
2022/09/30 06:59:01;;;;;;;25.52;12.38;;;;;;;;;;5028765;28;20028;-64
2022/09/30 07:01:28;;;;;;;29.50;14.85;;;;;;;;;;5025365;28;20021;-63
2022/09/30 07:03:56;;;;;;;36.00;17.70;;;;;;;;;;5018592;28;20034;-63
2022/09/30 07:06:23;;;;;;;19.92;13.48;;;;;;;;;;5029077;28;20079;-63
2022/09/30 07:08:50;;;;;;;38.08;25.10;;;;;;;;;;5026115;28;20041;-63
2022/09/30 07:11:16;;;;;;;31.38;18.85;;;;;;;;;;5026047;28;20051;-63
2022/09/30 07:13:48;;;;;;;27.85;17.08;;;;;;;;;;5029609;28;20029;-64
2022/09/30 07:16:16;;;;;;;30.58;17.40;;;;;;;;;;5027438;28;20037;-63
2022/09/30 07:18:43;;;;;;;27.20;15.13;;;;;;;;;;5029812;28;20120;-63
2022/09/30 07:21:11;;;;;;;21.13;12.70;;;;;;;;;;5030119;28;20033;-64
2022/09/30 07:23:37;;;;;;;19.33;12.57;;;;;;;;;;5030395;28;20033;-63
2022/09/30 07:26:04;;;;;;;23.38;11.65;;;;;;;;;;5028553;28;20057;-63
2022/09/30 07:28:34;;;;;;;23.67;10.75;;;;;;;;;;5030456;28;20551;-63
2022/09/30 07:31:02;;;;;;;20.55;9.75;;;;;;;;;;5029934;28;20030;-63
2022/09/30 07:33:30;;;;;;;29.70;14.95;;;;;;;;;;5029874;28;20060;-63
2022/09/30 07:35:57;;;;;;;27.40;17.60;;;;;;;;;;5032766;28;20030;-64
2022/09/30 07:38:24;;;;;;;22.95;12.57;;;;;;;;;;5031426;28;20048;-64
2022/09/30 07:40:52;;;;;;;20.35;10.55;;;;;;;;;;5028522;28;20041;-63
2022/09/30 07:43:19;;;;;;;19.10;11.27;;;;;;;;;;5031511;28;20458;-64
2022/09/30 07:45:46;;;;;;;19.88;8.27;;;;;;;;;;5031329;28;20052;-64
2022/09/30 07:48:41;;;;;;;13.65;8.48;;;;;;;;;;5032647;28;20013;-64
2022/09/30 07:50:58;;;;;;;15.40;9.10;;;;;;;;;;5027574;28;20034;-63
2022/09/30 07:53:24;;;;;;;13.40;7.82;;;;;;;;;;5031843;28;20034;-64
2022/09/30 07:55:50;;;;;;;16.20;8.70;;;;;;;;;;5032945;28;20036;-64
2022/09/30 07:58:17;;;;;;;11.63;7.75;;;;;;;;;;5027591;28;20021;-64
2022/09/30 08:00:43;;;;;;;11.93;7.05;;;;;;;;;;5029951;28;20540;-64
2022/09/30 08:03:09;;;;;;;11.15;7.43;;;;;;;;;;5030728;28;20026;-63
2022/09/30 08:05:39;;;;;;;14.05;8.15;;;;;;;;;;5031095;28;20025;-64
2022/09/30 08:08:05;;;;;;;14.30;8.15;;;;;;;;;;5032131;28;20511;-63
2022/09/30 08:10:35;;;;;;;20.58;9.18;;;;;;;;;;5032404;28;20069;-63
2022/09/30 08:13:01;;;;;;;21.63;9.57;;;;;;;;;;5032224;28;20079;-64
2022/09/30 08:15:27;;;;;;;21.00;9.10;;;;;;;;;;5033398;28;20022;-64
2022/09/30 08:17:53;;;;;;;15.73;8.38;;;;;;;;;;5031402;28;20080;-64
2022/09/30 08:20:20;;;;;;;18.05;7.70;;;;;;;;;;5031484;28;20096;-63
2022/09/30 08:22:46;;;;;;;20.08;8.85;;;;;;;;;;5031871;28;20060;-64
2022/09/30 08:25:12;;;;;;;18.88;9.30;;;;;;;;;;5032631;28;20029;-63
2022/09/30 08:27:38;;;;;;;17.35;8.00;;;;;;;;;;5030951;28;20064;-63
2022/09/30 08:30:05;;;;;;;19.52;7.93;;;;;;;;;;5032085;28;20022;-64
2022/09/30 08:32:31;;;;;;;15.90;7.40;;;;;;;;;;5031189;28;20040;-64
2022/09/30 08:34:57;;;;;;;17.75;9.07;;;;;;;;;;5031570;28;20421;-64
2022/09/30 08:37:23;;;;;;;13.25;7.63;;;;;;;;;;5031302;28;20025;-64
2022/09/30 08:39:50;;;;;;;17.08;6.72;;;;;;;;;;5031223;28;20041;-64
2022/09/30 08:42:28;;;;;;;16.75;6.65;;;;;;;;;;5031090;28;20040;-64
2022/09/30 08:45:01;;;;;;;9.07;5.25;;;;;;;;;;5029913;28;20044;-64
2022/09/30 08:47:47;;;;;;;13.10;5.25;;;;;;;;;;5029845;28;20136;-64
2022/09/30 08:50:16;;;;;;;12.23;5.80;;;;;;;;;;5031973;28;20036;-64
2022/09/30 08:52:48;;;;;;;10.02;4.97;;;;;;;;;;5032143;28;20108;-66
2022/09/30 08:55:22;;;;;;;11.23;4.68;;;;;;;;;;5032217;28;20075;-64
2022/09/30 08:57:48;;;;;;;8.82;4.45;;;;;;;;;;5031378;28;20065;-64
2022/09/30 09:00:16;;;;;;;10.50;4.93;;;;;;;;;;5029303;28;20037;-64
2022/09/30 09:02:45;;;;;;;11.13;4.10;;;;;;;;;;5033968;28;20121;-64
2022/09/30 09:05:16;;;;;;;9.48;4.15;;;;;;;;;;5032182;28;20021;-64
2022/09/30 09:07:45;;;;;;;7.85;3.70;;;;;;;;;;5030864;28;20083;-64
2022/09/30 09:10:17;;;;;;;8.73;2.67;;;;;;;;;;5031762;28;20049;-64
2022/09/30 09:12:51;;;;;;;5.78;2.22;;;;;;;;;;5028992;28;20563;-64
2022/09/30 09:15:30;;;;;;;11.02;2.15;;;;;;;;;;5032056;28;20025;-64
2022/09/30 09:18:09;;;;;;;3.58;1.63;;;;;;;;;;5031249;28;20022;-64
2022/09/30 09:20:40;;;;;;;6.50;1.48;;;;;;;;;;5025893;28;20040;-64
2022/09/30 09:23:08;;;;;;;6.28;1.60;;;;;;;;;;5031253;28;20110;-64
2022/09/30 09:25:34;;;;;;;5.03;2.15;;;;;;;;;;5031441;28;20497;-64
2022/09/30 09:28:02;;;;;;;4.00;1.50;;;;;;;;;;5031023;28;20624;-64
2022/09/30 09:30:43;;;;;;;7.30;2.10;;;;;;;;;;5031353;28;20037;-64
2022/09/30 09:33:25;;;;;;;6.72;2.20;;;;;;;;;;5031856;28;20033;-64
2022/09/30 09:35:53;;;;;;;4.30;1.70;;;;;;;;;;5026184;28;20033;-64
2022/09/30 09:38:27;;;;;;;8.70;1.65;;;;;;;;;;5030122;28;20025;-64
2022/09/30 09:40:56;;;;;;;12.52;1.90;;;;;;;;;;5031589;28;20516;-64
2022/09/30 09:43:22;;;;;;;5.00;1.60;;;;;;;;;;5028271;28;20036;-64
2022/09/30 09:45:59;;;;;;;7.15;1.83;;;;;;;;;;5032249;28;20481;-64
2022/09/30 09:48:25;;;;;;;5.38;1.73;;;;;;;;;;5033642;28;20033;-64
2022/09/30 09:51:00;;;;;;;6.72;2.03;;;;;;;;;;5031150;28;20036;-64
2022/09/30 09:53:35;;;;;;;5.82;1.80;;;;;;;;;;5029700;28;20439;-64
2022/09/30 09:56:02;;;;;;;6.88;1.77;;;;;;;;;;5028072;28;20025;-64
2022/09/30 09:58:28;;;;;;;7.30;1.90;;;;;;;;;;5027984;28;20030;-64
2022/09/30 10:01:22;;;;;;;10.82;2.05;;;;;;;;;;5028556;28;20496;-64
2022/09/30 10:04:02;;;;;;;5.75;1.88;;;;;;;;;;5028555;28;20098;-64
2022/09/30 10:06:41;;;;;;;5.93;1.83;;;;;;;;;;5027270;28;20029;-64
2022/09/30 10:09:21;;;;;;;7.57;2.10;;;;;;;;;;5030106;28;20490;-64
2022/09/30 10:11:47;;;;;;;6.28;1.65;;;;;;;;;;5031785;28;20552;-64
2022/09/30 10:14:20;;;;;;;4.85;1.80;;;;;;;;;;5029957;28;20072;-64
2022/09/30 10:16:46;;;;;;;7.00;1.88;;;;;;;;;;5036710;28;20033;-64
2022/09/30 10:19:24;;;;;;;11.63;2.72;;;;;;;;;;5021516;28;20083;-64
2022/09/30 10:21:50;;;;;;;3.75;1.90;;;;;;;;;;5035547;28;20075;-64
2022/09/30 10:24:27;;;;;;;7.13;2.00;;;;;;;;;;5043938;28;20033;-64
2022/09/30 10:26:53;;;;;;;4.25;1.63;;;;;;;;;;5029538;28;20029;-64
2022/09/30 10:29:28;;;;;;;10.13;1.98;;;;;;;;;;5030746;28;20021;-64
2022/09/30 10:31:54;;;;;;;5.00;1.70;;;;;;;;;;5030765;28;20037;-64
2022/09/30 10:34:24;;;;;;;12.13;3.40;;;;;;;;;;5033779;28;20026;-64
2022/09/30 10:36:52;;;;;;;9.50;2.20;;;;;;;;;;5032402;28;20029;-64
2022/09/30 10:39:27;;;;;;;7.57;2.60;;;;;;;;;;5032563;28;20052;-64
2022/09/30 10:42:12;;;;;;;5.07;1.88;;;;;;;;;;5020267;28;20091;-64
2022/09/30 10:44:48;;;;;;;8.55;2.45;;;;;;;;;;5039403;28;20083;-64
2022/09/30 10:47:19;;;;;;;5.32;2.40;;;;;;;;;;5029438;28;20035;-64
2022/09/30 10:49:50;;;;;;;15.25;4.43;;;;;;;;;;5031754;28;20503;-64
2022/09/30 10:52:23;;;;;;;18.00;6.20;;;;;;;;;;5033462;28;20508;-64
2022/09/30 10:54:49;;;;;;;4.95;2.00;;;;;;;;;;5031917;28;20536;-64
2022/09/30 10:57:29;;;;;;;7.28;3.03;;;;;;;;;;5031366;28;20040;-64
2022/09/30 11:00:11;;;;;;;10.48;2.85;;;;;;;;;;5021887;28;20030;-64
2022/09/30 11:02:39;;;;;;;8.17;2.30;;;;;;;;;;5034396;28;20116;-64
2022/09/30 11:05:10;;;;;;;8.30;2.30;;;;;;;;;;5035677;28;20666;-64
2022/09/30 11:07:42;;;;;;;4.68;2.08;;;;;;;;;;5034267;28;20043;-64
2022/09/30 11:10:21;;;;;;;4.30;1.90;;;;;;;;;;5034779;28;20048;-64
2022/09/30 11:12:49;;;;;;;5.10;1.50;;;;;;;;;;5039561;28;20116;-64
2022/09/30 11:15:19;;;;;;;3.60;1.63;;;;;;;;;;5029803;28;20039;-64
2022/09/30 11:17:57;;;;;;;7.93;1.77;;;;;;;;;;5032326;28;20520;-64
2022/09/30 11:20:30;;;;;;;3.72;1.65;;;;;;;;;;5035929;28;20047;-64
2022/09/30 11:23:11;;;;;;;3.72;1.77;;;;;;;;;;5034496;28;20033;-64
2022/09/30 11:25:55;;;;;;;5.90;1.40;;;;;;;;;;5032140;28;20034;-64
2022/09/30 11:28:40;;;;;;;1.55;1.20;;;;;;;;;;5034262;28;20036;-64
2022/09/30 11:31:06;;;;;;;4.05;1.30;;;;;;;;;;5031612;28;20029;-64
2022/09/30 11:33:45;;;;;;;9.32;2.10;;;;;;;;;;5032793;28;20060;-64
2022/09/30 11:36:31;;;;;;;5.03;1.65;;;;;;;;;;5030909;28;20139;-64
2022/09/30 11:39:23;;;;;;;5.72;1.40;;;;;;;;;;5026260;28;20148;-64
2022/09/30 11:41:54;;;;;;;5.35;1.92;;;;;;;;;;5030707;28;20550;-64
2022/09/30 11:44:26;;;;;;;4.45;1.50;;;;;;;;;;5035420;28;20028;-64
2022/09/30 11:46:58;;;;;;;7.82;1.70;;;;;;;;;;5029196;28;20456;-64
2022/09/30 11:49:24;;;;;;;5.72;1.70;;;;;;;;;;5035282;28;20037;-64
2022/09/30 11:52:02;;;;;;;3.97;1.55;;;;;;;;;;5029324;28;20029;-64
2022/09/30 11:54:49;;;;;;;3.90;2.20;;;;;;;;;;5030727;28;20561;-64
2022/09/30 11:57:24;;;;;;;6.82;2.55;;;;;;;;;;5030394;28;20479;-64
2022/09/30 12:00:07;;;;;;;14.27;4.40;;;;;;;;;;5030071;28;20436;-64
2022/09/30 12:02:39;;;;;;;5.57;2.90;;;;;;;;;;5027148;28;20571;-64
2022/09/30 12:05:19;;;;;;;6.22;2.78;;;;;;;;;;5029659;28;20025;-64
2022/09/30 12:07:49;;;;;;;6.35;2.70;;;;;;;;;;5031070;28;20457;-64
2022/09/30 12:10:27;;;;;;;5.80;2.50;;;;;;;;;;5026909;28;20436;-64
2022/09/30 12:12:56;;;;;;;11.43;4.60;;;;;;;;;;5026789;28;20401;-64
2022/09/30 12:15:22;;;;;;;5.55;2.67;;;;;;;;;;5028746;28;20041;-64
2022/09/30 12:18:00;;;;;;;7.15;3.42;;;;;;;;;;5031743;28;20532;-64
2022/09/30 12:20:32;;;;;;;8.32;3.90;;;;;;;;;;5029712;28;20624;-64
2022/09/30 12:23:21;;;;;;;12.30;5.60;;;;;;;;;;5028658;28;20836;-64
2022/09/30 12:25:52;;;;;;;18.83;7.40;;;;;;;;;;5024880;28;20304;-64
2022/09/30 12:31:24;;;;;;;20.73;8.00;;;;;;;;;;5026665;28;20043;-64
2022/09/30 12:33:56;;;;;;;11.98;5.63;;;;;;;;;;5025012;28;20084;-64
2022/09/30 12:36:45;;;;;;;9.10;4.70;;;;;;;;;;5032087;28;20026;-64
2022/09/30 12:39:27;;;;;;;8.45;4.38;;;;;;;;;;5031260;28;20383;-64
2022/09/30 12:42:12;;;;;;;9.52;4.50;;;;;;;;;;5031610;28;20029;-64
2022/09/30 12:44:54;;;;;;;9.07;3.90;;;;;;;;;;5032803;28;20103;-64
2022/09/30 12:47:23;;;;;;;11.38;3.95;;;;;;;;;;5031977;28;20116;-64
2022/09/30 12:49:50;;;;;;;9.93;3.90;;;;;;;;;;5035827;28;20045;-64
2022/09/30 12:52:19;;;;;;;8.70;3.75;;;;;;;;;;5034855;28;20021;-64
2022/09/30 12:54:51;;;;;;;12.88;3.50;;;;;;;;;;5033015;28;20538;-64
2022/09/30 12:57:25;;;;;;;7.90;3.17;;;;;;;;;;5031613;28;20037;-64
2022/09/30 12:59:53;;;;;;;10.95;3.30;;;;;;;;;;5033294;28;20029;-64
2022/09/30 13:02:29;;;;;;;10.73;3.65;;;;;;;;;;5031732;28;20052;-64
2022/09/30 13:05:15;;;;;;;14.10;3.55;;;;;;;;;;5032055;28;20029;-64
2022/09/30 13:08:01;;;;;;;11.88;4.30;;;;;;;;;;5029973;28;20076;-64
2022/09/30 13:10:29;;;;;;;11.23;4.93;;;;;;;;;;5032127;28;20069;-64
2022/09/30 13:13:10;;;;;;;9.45;3.25;;;;;;;;;;5029379;28;20026;-64
2022/09/30 13:15:36;;;;;;;8.73;3.78;;;;;;;;;;5040227;28;20075;-64
2022/09/30 13:18:25;;;;;;;14.50;3.72;;;;;;;;;;5035399;28;20021;-64
2022/09/30 13:20:55;;;;;;;7.93;3.13;;;;;;;;;;5029124;28;20033;-64
2022/09/30 13:23:36;;;;;;;9.30;3.17;;;;;;;;;;5038652;28;20031;-64
2022/09/30 13:26:03;;;;;;;12.48;2.38;;;;;;;;;;5034041;28;20029;-64
2022/09/30 13:28:30;;;;;;;10.07;2.97;;;;;;;;;;5029660;28;20492;-64
2022/09/30 13:31:18;;;;;;;11.13;3.22;;;;;;;;;;5033652;28;20030;-64
2022/09/30 13:33:44;;;;;;;7.40;2.13;;;;;;;;;;5029934;28;20033;-64
2022/09/30 13:36:19;;;;;;;6.28;2.60;;;;;;;;;;5030154;28;20477;-64
2022/09/30 13:38:45;;;;;;;10.80;2.05;;;;;;;;;;5030043;28;20029;-64
2022/09/30 13:41:18;;;;;;;9.15;2.30;;;;;;;;;;5030462;28;20037;-64
2022/09/30 13:43:45;;;;;;;;;;;;;;;;;;5030501;28;20025;-64
2022/09/30 13:46:16;;;;;;;6.80;2.20;;;;;;;;;;5029875;28;19917;-64
2022/09/30 13:48:47;;;;;;;9.70;2.40;;;;;;;;;;5025409;28;20037;-64
2022/09/30 13:51:15;;;;;;;6.30;1.50;;;;;;;;;;5028622;28;20493;-64
2022/09/30 13:53:45;;;;;;;7.85;1.40;;;;;;;;;;5031551;28;20107;-64
2022/09/30 13:56:31;;;;;;;4.00;1.92;;;;;;;;;;5032501;28;20359;-64
2022/09/30 13:59:04;;;;;;;8.23;2.40;;;;;;;;;;5030668;28;20021;-64
2022/09/30 14:01:33;;;;;;;7.00;3.03;;;;;;;;;;5028590;28;20039;-64
2022/09/30 14:04:22;;;;;;;9.23;3.35;;;;;;;;;;5030867;28;20080;-64
2022/09/30 14:07:07;;;;;;;9.35;3.05;;;;;;;;;;5028476;28;20052;-64
2022/09/30 14:09:33;;;;;;;22.02;5.90;;;;;;;;;;5030150;28;20045;-64
2022/09/30 14:12:12;;;;;;;16.33;6.05;;;;;;;;;;5036498;28;20040;-64
2022/09/30 14:14:50;;;;;;;4.20;1.65;;;;;;;;;;5031575;28;20186;-64
2022/09/30 14:17:22;;;;;;;5.63;1.65;;;;;;;;;;5022137;28;20117;-64
2022/09/30 14:20:07;;;;;;;8.57;1.90;;;;;;;;;;5026910;28;20029;-64
2022/09/30 14:22:35;;;;;;;5.72;1.25;;;;;;;;;;5028847;28;20041;-64
2022/09/30 14:25:01;;;;;;;8.02;1.90;;;;;;;;;;5027462;28;20033;-64
2022/09/30 14:27:42;;;;;;;4.32;1.45;;;;;;;;;;5032843;28;20041;-64
2022/09/30 14:30:11;;;;;;;8.65;1.65;;;;;;;;;;5027029;28;20041;-64
2022/09/30 14:32:46;;;;;;;6.47;1.60;;;;;;;;;;5030641;28;20080;-64
2022/09/30 14:35:15;;;;;;;6.53;1.73;;;;;;;;;;5037222;28;20056;-64
2022/09/30 14:37:49;;;;;;;7.68;1.25;;;;;;;;;;5031622;28;20509;-64
2022/09/30 14:40:17;;;;;;;8.55;1.35;;;;;;;;;;5028528;28;20029;-64
2022/09/30 14:42:46;;;;;;;5.95;1.90;;;;;;;;;;5026607;28;20029;-64
2022/09/30 14:45:25;;;;;;;3.13;1.60;;;;;;;;;;5031905;28;20136;-64
2022/09/30 14:47:53;;;;;;;6.05;1.75;;;;;;;;;;5031329;28;20029;-64
2022/09/30 14:50:23;;;;;;;5.70;1.50;;;;;;;;;;5035831;28;20056;-64
2022/09/30 14:52:55;;;;;;;4.82;1.33;;;;;;;;;;5032258;28;20033;-64
2022/09/30 14:55:25;;;;;;;8.35;1.95;;;;;;;;;;5022530;28;20040;-64
2022/09/30 14:57:58;;;;;;;8.60;1.67;;;;;;;;;;5029379;28;20465;-64
2022/09/30 15:00:27;;;;;;;7.00;1.63;;;;;;;;;;5031978;28;20099;-64
2022/09/30 15:02:54;;;;;;;4.20;1.30;;;;;;;;;;5019621;28;20026;-64
2022/09/30 15:05:20;;;;;;;7.68;1.52;;;;;;;;;;5032069;28;20026;-64